createdAt,value
2022-12-12T00:00:46.689Z,20.95
2022-12-12T00:03:14.311Z,20.27
2022-12-12T00:05:41.949Z,20.67
2022-12-12T00:08:09.499Z,20.50
2022-12-12T00:10:37.267Z,18.52
2022-12-12T00:13:04.737Z,18.48
2022-12-12T00:15:32.302Z,19.92
2022-12-12T00:18:01.226Z,19.27
2022-12-12T00:20:28.712Z,19.13
2022-12-12T00:22:56.238Z,19.50
2022-12-12T00:25:23.664Z,18.50
2022-12-12T00:27:51.295Z,18.15
2022-12-12T00:30:18.693Z,19.85
2022-12-12T00:32:46.200Z,19.23
2022-12-12T00:35:13.861Z,19.40
2022-12-12T00:37:41.526Z,19.02
2022-12-12T00:40:10.618Z,19.23
2022-12-12T00:42:38.156Z,18.75
2022-12-12T00:45:06.048Z,19.80
2022-12-12T00:47:33.520Z,17.70
2022-12-12T00:50:01.055Z,19.05
2022-12-12T00:52:28.553Z,18.42
2022-12-12T00:54:56.028Z,19.20
2022-12-12T00:57:23.498Z,20.13
2022-12-12T00:59:50.944Z,18.77
2022-12-12T01:02:23.523Z,19.65
2022-12-12T01:04:54.007Z,19.13
2022-12-12T01:07:21.507Z,18.83
2022-12-12T01:09:48.957Z,19.67
2022-12-12T01:12:16.466Z,20.02
2022-12-12T01:14:44.028Z,19.70
2022-12-12T01:17:11.423Z,19.58
2022-12-12T01:19:38.986Z,20.42
2022-12-12T01:22:06.449Z,19.90
2022-12-12T01:24:33.998Z,18.75
2022-12-12T01:27:01.714Z,18.73
2022-12-12T01:29:29.244Z,19.33
2022-12-12T01:31:56.666Z,18.25
2022-12-12T01:34:24.133Z,18.20
2022-12-12T01:36:51.678Z,18.40
2022-12-12T01:39:19.217Z,17.77
2022-12-12T01:41:46.616Z,17.15
2022-12-12T01:44:41.527Z,18.50
2022-12-12T01:47:09.609Z,18.20
2022-12-12T01:49:37.114Z,18.30
2022-12-12T01:52:10.818Z,17.25
2022-12-12T01:54:47.017Z,19.40
2022-12-12T01:57:21.498Z,18.38
2022-12-12T01:59:49.188Z,19.02
2022-12-12T02:02:16.734Z,19.00
2022-12-12T02:04:44.337Z,17.88
2022-12-12T02:07:12.697Z,20.63
2022-12-12T02:09:40.764Z,18.42
2022-12-12T02:12:08.397Z,18.60
2022-12-12T02:14:40.577Z,19.55
2022-12-12T02:17:36.385Z,18.00
2022-12-12T02:20:19.138Z,19.30
2022-12-12T02:23:11.362Z,19.52
2022-12-12T02:26:16.173Z,19.95
2022-12-12T02:29:08.262Z,18.52
2022-12-12T02:32:00.504Z,19.13
2022-12-12T02:34:46.605Z,19.55
2022-12-12T02:37:29.328Z,20.25
2022-12-12T02:40:26.271Z,20.15
2022-12-12T02:43:11.067Z,20.13
2022-12-12T02:45:47.858Z,19.98
2022-12-12T02:48:20.339Z,19.23
2022-12-12T02:50:50.819Z,20.35
2022-12-12T02:53:20.117Z,19.52
2022-12-12T02:55:48.183Z,19.65
2022-12-12T02:58:16.886Z,21.35
2022-12-12T03:01:11.337Z,22.55
2022-12-12T03:04:22.019Z,21.50
2022-12-12T03:07:37.267Z,18.77
2022-12-12T03:10:15.376Z,19.08
2022-12-12T03:13:06.127Z,21.30
2022-12-12T03:15:56.924Z,20.50
2022-12-12T03:18:59.199Z,18.60
2022-12-12T03:21:49.638Z,20.02
2022-12-12T03:24:22.624Z,19.88
2022-12-12T03:27:01.504Z,20.20
2022-12-12T03:29:36.509Z,20.30
2022-12-12T03:32:10.027Z,20.90
2022-12-12T03:37:16.541Z,20.48
2022-12-12T03:39:55.295Z,20.80
2022-12-12T03:42:36.668Z,21.58
2022-12-12T03:45:13.621Z,21.10
2022-12-12T03:48:12.048Z,21.95
2022-12-12T03:50:52.946Z,21.27
2022-12-12T03:53:47.167Z,21.58
2022-12-12T03:56:31.996Z,21.23
2022-12-12T03:59:09.476Z,19.17
2022-12-12T04:01:46.383Z,21.15
2022-12-12T04:04:29.440Z,20.98
2022-12-12T04:07:16.017Z,21.38
2022-12-12T04:10:02.224Z,22.23
2022-12-12T04:12:59.929Z,20.42
2022-12-12T04:15:36.487Z,20.88
2022-12-12T04:18:25.867Z,20.63
2022-12-12T04:21:35.007Z,20.40
2022-12-12T04:24:23.687Z,18.77
2022-12-12T04:26:54.017Z,19.48
2022-12-12T04:29:39.848Z,20.23
2022-12-12T04:32:16.882Z,19.63
2022-12-12T04:34:49.161Z,19.23
2022-12-12T04:37:39.686Z,19.23
2022-12-12T04:40:11.073Z,18.75
2022-12-12T04:42:46.736Z,18.45
2022-12-12T04:45:19.087Z,20.02
2022-12-12T04:47:50.559Z,18.80
2022-12-12T04:50:20.637Z,18.23
2022-12-12T04:52:50.818Z,19.20
2022-12-12T04:55:24.641Z,17.00
2022-12-12T04:57:54.916Z,16.10
2022-12-12T05:00:24.413Z,17.52
2022-12-12T05:03:13.413Z,16.10
2022-12-12T05:06:00.920Z,18.38
2022-12-12T05:08:36.368Z,17.48
2022-12-12T05:11:05.968Z,17.77
2022-12-12T05:13:37.023Z,15.48
2022-12-12T05:16:15.043Z,15.75
2022-12-12T05:18:42.597Z,17.60
2022-12-12T05:21:10.005Z,17.02
2022-12-12T05:27:50.017Z,17.00
2022-12-12T05:30:17.611Z,15.85
2022-12-12T05:32:45.277Z,17.02
2022-12-12T05:35:13.245Z,16.80
2022-12-12T05:37:41.231Z,15.73
2022-12-12T05:40:11.330Z,15.52
2022-12-12T05:42:40.429Z,16.35
2022-12-12T05:45:09.293Z,17.05
2022-12-12T05:47:37.014Z,16.55
2022-12-12T05:50:05.683Z,16.13
2022-12-12T05:52:33.478Z,16.33
2022-12-12T05:55:01.111Z,17.33
2022-12-12T05:57:28.506Z,17.83
2022-12-12T05:59:56.194Z,16.73
2022-12-12T06:02:23.675Z,17.92
2022-12-12T06:04:51.165Z,17.25
2022-12-12T06:07:18.643Z,16.38
2022-12-12T06:09:46.183Z,16.52
2022-12-12T06:12:13.731Z,16.23
2022-12-12T06:14:41.263Z,16.77
2022-12-12T06:17:08.688Z,16.17
2022-12-12T06:19:36.202Z,17.05
2022-12-12T06:22:03.762Z,16.98
2022-12-12T06:24:31.332Z,16.08
2022-12-12T06:26:58.730Z,16.10
2022-12-12T06:29:26.663Z,16.85
2022-12-12T06:31:54.374Z,16.00
2022-12-12T06:34:21.802Z,16.73
2022-12-12T06:36:49.279Z,16.40
2022-12-12T06:39:16.739Z,16.33
2022-12-12T06:41:44.449Z,17.27
2022-12-12T06:44:12.018Z,17.45
2022-12-12T06:46:39.927Z,16.80
2022-12-12T06:49:09.970Z,16.80
2022-12-12T06:51:44.414Z,16.77
2022-12-12T06:54:17.777Z,17.70
2022-12-12T06:56:48.537Z,17.48
2022-12-12T06:59:17.083Z,17.13
2022-12-12T07:01:45.584Z,16.92
2022-12-12T07:04:13.814Z,17.80
2022-12-12T07:06:41.843Z,17.45
2022-12-12T07:09:09.474Z,18.05
2022-12-12T07:11:36.943Z,16.80
2022-12-12T07:14:05.828Z,18.67
2022-12-12T07:16:34.067Z,18.30
2022-12-12T07:19:01.604Z,19.75
2022-12-12T07:21:29.336Z,18.33
2022-12-12T07:23:57.502Z,18.48
2022-12-12T07:26:25.233Z,18.33
2022-12-12T07:28:53.039Z,18.50
2022-12-12T07:31:23.087Z,18.13
2022-12-12T07:33:50.682Z,16.48
2022-12-12T07:36:18.244Z,16.25
2022-12-12T07:38:46.184Z,17.27
2022-12-12T07:41:16.264Z,18.13
2022-12-12T07:43:46.705Z,16.60
2022-12-12T07:46:17.677Z,17.05
2022-12-12T07:48:45.269Z,16.05
2022-12-12T07:51:13.286Z,16.20
2022-12-12T07:53:41.804Z,15.40
2022-12-12T07:56:11.231Z,15.43
2022-12-12T07:58:39.248Z,15.95
2022-12-12T08:01:15.474Z,15.63
2022-12-12T08:03:45.055Z,15.23
2022-12-12T08:06:13.934Z,14.35
2022-12-12T08:08:42.083Z,13.82
2022-12-12T08:11:12.051Z,15.38
2022-12-12T08:13:40.625Z,14.90
2022-12-12T08:16:13.890Z,14.98
2022-12-12T08:18:41.497Z,15.02
2022-12-12T08:21:10.955Z,14.77
2022-12-12T08:23:39.576Z,14.57
2022-12-12T08:26:13.303Z,14.80
2022-12-12T08:28:44.105Z,14.43
2022-12-12T08:31:18.421Z,15.20
2022-12-12T08:33:47.396Z,13.95
2022-12-12T08:36:22.800Z,13.07
2022-12-12T08:38:51.256Z,15.50
2022-12-12T08:41:19.911Z,13.80
2022-12-12T08:43:47.926Z,14.35
2022-12-12T08:46:18.396Z,14.02
2022-12-12T08:48:47.455Z,13.73
2022-12-12T08:51:18.628Z,14.23
2022-12-12T08:53:50.755Z,14.65
2022-12-12T08:56:19.679Z,13.30
2022-12-12T08:58:48.209Z,14.20
2022-12-12T09:01:19.575Z,13.68
2022-12-12T09:03:48.147Z,13.02
2022-12-12T09:06:16.094Z,14.23
2022-12-12T09:08:46.156Z,14.23
2022-12-12T09:11:14.614Z,13.23
2022-12-12T09:13:42.559Z,13.55
2022-12-12T09:16:11.850Z,13.63
2022-12-12T09:18:46.338Z,12.88
2022-12-12T09:21:16.612Z,13.25
2022-12-12T09:23:44.163Z,13.27
2022-12-12T09:26:12.007Z,13.05
2022-12-12T09:28:40.397Z,12.23
2022-12-12T09:31:09.895Z,12.18
2022-12-12T09:33:37.459Z,12.68
2022-12-12T09:36:07.860Z,13.43
2022-12-12T09:38:36.619Z,12.48
2022-12-12T09:41:30.811Z,12.90
2022-12-12T09:46:31.838Z,12.35
2022-12-12T09:49:19.740Z,11.38
2022-12-12T09:51:49.809Z,12.02
2022-12-12T09:54:21.378Z,11.98
2022-12-12T09:57:16.240Z,12.05
2022-12-12T09:59:46.357Z,11.15
2022-12-12T10:02:44.493Z,11.30
2022-12-12T10:06:01.902Z,12.57
2022-12-12T10:09:03.784Z,13.10
2022-12-12T10:11:50.349Z,12.68
2022-12-12T10:14:37.664Z,12.35
2022-12-12T10:17:12.435Z,11.77
2022-12-12T10:19:55.989Z,12.25
2022-12-12T10:22:36.323Z,11.90
2022-12-12T10:25:19.147Z,11.90
2022-12-12T10:27:46.776Z,12.05
2022-12-12T10:30:17.818Z,12.18
2022-12-12T10:33:14.605Z,12.45
2022-12-12T10:35:53.749Z,11.77
2022-12-12T10:39:03.866Z,12.45
2022-12-12T10:41:51.426Z,11.70
2022-12-12T10:44:46.879Z,11.43
2022-12-12T10:47:15.060Z,11.50
2022-12-12T10:49:42.776Z,12.27
2022-12-12T10:52:22.348Z,11.98
2022-12-12T10:54:58.387Z,11.63
2022-12-12T10:57:28.236Z,11.82
2022-12-12T10:59:59.100Z,11.32
2022-12-12T11:02:42.542Z,11.05
2022-12-12T11:05:18.406Z,11.23
2022-12-12T11:07:49.568Z,11.55
2022-12-12T11:10:34.007Z,10.48
2022-12-12T11:13:11.213Z,11.88
2022-12-12T11:16:02.906Z,11.25
2022-12-12T11:18:30.515Z,12.18
2022-12-12T11:21:07.285Z,11.80
2022-12-12T11:23:39.359Z,12.30
2022-12-12T11:26:14.796Z,12.27
2022-12-12T11:28:44.674Z,11.23
2022-12-12T11:31:19.545Z,11.50
2022-12-12T11:33:51.025Z,11.20
2022-12-12T11:36:23.426Z,10.70
2022-12-12T11:38:54.897Z,11.85
2022-12-12T11:41:23.043Z,11.15
2022-12-12T11:43:50.478Z,10.77
2022-12-12T11:46:23.605Z,11.32
2022-12-12T11:48:53.800Z,10.85
2022-12-12T11:51:40.651Z,11.98
2022-12-12T11:54:19.281Z,12.20
2022-12-12T11:57:02.972Z,12.43
2022-12-12T12:00:04.891Z,12.00
2022-12-12T12:02:47.652Z,12.00
2022-12-12T12:05:21.001Z,13.25
2022-12-12T12:08:13.030Z,11.80
2022-12-12T12:11:04.489Z,12.52
2022-12-12T12:13:52.666Z,11.57
2022-12-12T12:16:20.105Z,12.95
2022-12-12T12:19:13.310Z,12.02
2022-12-12T12:21:46.541Z,13.23
2022-12-12T12:24:48.134Z,12.57
2022-12-12T12:27:25.914Z,12.60
2022-12-12T12:29:57.244Z,11.63
2022-12-12T12:32:44.122Z,12.15
2022-12-12T12:35:24.013Z,12.35
2022-12-12T12:38:35.491Z,12.18
2022-12-12T12:41:26.460Z,12.40
2022-12-12T12:44:15.112Z,11.98
2022-12-12T12:46:50.111Z,12.68
2022-12-12T12:49:29.230Z,11.68
2022-12-12T12:52:06.469Z,12.13
2022-12-12T12:54:39.571Z,11.95
2022-12-12T12:57:16.475Z,12.63
2022-12-12T12:59:49.024Z,12.32
2022-12-12T13:02:40.879Z,11.55
2022-12-12T13:05:37.984Z,11.80
2022-12-12T13:08:13.847Z,11.48
2022-12-12T13:10:48.125Z,12.32
2022-12-12T13:13:24.845Z,11.65
2022-12-12T13:16:20.350Z,11.75
2022-12-12T13:18:56.505Z,11.85
2022-12-12T13:21:48.944Z,11.38
2022-12-12T13:24:59.652Z,11.73
2022-12-12T13:27:46.054Z,10.88
2022-12-12T13:30:37.001Z,11.48
2022-12-12T13:33:19.886Z,10.98
2022-12-12T13:35:51.253Z,11.85
2022-12-12T13:38:23.868Z,12.23
2022-12-12T13:40:58.306Z,12.80
2022-12-12T13:43:37.922Z,11.98
2022-12-12T13:46:24.839Z,12.45
2022-12-12T13:49:07.688Z,12.05
2022-12-12T13:51:41.545Z,12.30
2022-12-12T13:54:13.242Z,12.75
2022-12-12T13:56:47.280Z,13.93
2022-12-12T13:59:25.208Z,12.95
2022-12-12T14:01:57.201Z,13.55
2022-12-12T14:04:34.993Z,13.60
2022-12-12T14:07:04.496Z,13.68
2022-12-12T14:09:47.652Z,13.13
2022-12-12T14:12:31.551Z,13.98
2022-12-12T14:15:08.347Z,14.52
2022-12-12T14:17:42.873Z,13.23
2022-12-12T14:20:26.408Z,13.05
2022-12-12T14:22:59.829Z,13.70
2022-12-12T14:25:36.363Z,13.93
2022-12-12T14:28:34.545Z,14.27
2022-12-12T14:31:15.355Z,14.00
2022-12-12T14:34:07.025Z,13.63
2022-12-12T14:37:16.144Z,14.15
2022-12-12T14:39:49.616Z,13.20
2022-12-12T14:43:20.074Z,13.65
2022-12-12T14:45:40.639Z,13.32
2022-12-12T14:48:21.662Z,12.70
2022-12-12T14:51:14.651Z,12.32
2022-12-12T14:53:47.406Z,13.07
2022-12-12T14:56:18.840Z,13.07
2022-12-12T14:58:56.564Z,12.63
2022-12-12T15:01:32.250Z,12.90
2022-12-12T15:04:03.705Z,11.63
2022-12-12T15:06:31.301Z,11.20
2022-12-12T15:09:08.241Z,10.75
2022-12-12T15:11:36.125Z,11.60
2022-12-12T15:14:04.592Z,10.68
2022-12-12T15:16:59.604Z,11.25
2022-12-12T15:19:32.022Z,11.60
2022-12-12T15:22:00.505Z,11.50
2022-12-12T15:24:35.995Z,11.38
2022-12-12T15:27:05.536Z,10.95
2022-12-12T15:29:35.620Z,11.00
2022-12-12T15:32:07.280Z,11.27
2022-12-12T15:34:36.847Z,11.65
2022-12-12T15:37:43.325Z,11.82
2022-12-12T15:40:14.899Z,12.23
2022-12-12T15:42:46.555Z,11.50
2022-12-12T15:45:27.673Z,11.70
2022-12-12T15:47:57.047Z,10.75
2022-12-12T15:50:44.667Z,11.80
2022-12-12T15:53:32.730Z,10.50
2022-12-12T15:56:16.045Z,11.45
2022-12-12T15:58:47.116Z,12.45
2022-12-12T16:01:21.012Z,11.75
2022-12-12T16:04:09.777Z,13.10
2022-12-12T16:06:38.172Z,13.73
2022-12-12T16:09:11.619Z,12.80
2022-12-12T16:14:35.543Z,13.73
2022-12-12T16:17:15.866Z,14.35
2022-12-12T16:19:54.923Z,13.45
2022-12-12T16:22:42.677Z,14.52
2022-12-12T16:25:19.963Z,14.32
2022-12-12T16:27:51.231Z,15.43
2022-12-12T16:30:18.810Z,14.73
2022-12-12T16:32:46.375Z,15.23
2022-12-12T16:35:20.645Z,14.93
2022-12-12T16:37:48.633Z,16.20
2022-12-12T16:40:21.315Z,15.35
2022-12-12T16:42:59.803Z,16.38
2022-12-12T16:45:27.282Z,16.95
2022-12-12T16:47:55.382Z,16.52
2022-12-12T16:50:22.950Z,17.40
2022-12-12T16:52:50.352Z,17.73
2022-12-12T16:55:22.355Z,16.95
2022-12-12T16:57:50.798Z,18.85
2022-12-12T17:00:18.744Z,18.67
2022-12-12T17:02:46.195Z,18.77
2022-12-12T17:05:20.725Z,18.00
2022-12-12T17:07:48.293Z,19.50
2022-12-12T17:10:16.063Z,16.48
2022-12-12T17:12:44.309Z,18.02
2022-12-12T17:15:21.141Z,17.85
2022-12-12T17:17:48.755Z,17.90
2022-12-12T17:20:16.852Z,18.63
2022-12-12T17:22:45.232Z,18.13
2022-12-12T17:25:14.194Z,19.23
2022-12-12T17:27:42.560Z,18.67
2022-12-12T17:30:11.884Z,18.60
2022-12-12T17:32:39.893Z,18.33
2022-12-12T17:35:08.961Z,17.77
2022-12-12T17:37:36.985Z,18.35
2022-12-12T17:40:06.455Z,16.17
2022-12-12T17:42:34.035Z,17.25
2022-12-12T17:45:01.457Z,17.75
2022-12-12T17:47:28.987Z,17.92
2022-12-12T17:49:56.548Z,19.02
2022-12-12T17:52:24.102Z,17.92
2022-12-12T17:55:53.571Z,18.05
2022-12-12T17:57:39.134Z,18.38
2022-12-12T18:00:07.383Z,16.52
2022-12-12T18:02:40.663Z,18.20
2022-12-12T18:05:09.924Z,20.48
2022-12-12T18:07:37.562Z,18.90
2022-12-12T18:10:05.443Z,18.58
2022-12-12T18:12:32.954Z,18.25
2022-12-12T18:15:00.545Z,18.98
2022-12-12T18:17:27.911Z,20.45
2022-12-12T18:19:55.476Z,19.65
2022-12-12T18:22:22.880Z,19.42
2022-12-12T18:24:50.503Z,19.45
2022-12-12T18:27:17.953Z,19.70
2022-12-12T18:29:45.553Z,19.52
2022-12-12T18:32:13.081Z,20.08
2022-12-12T18:34:40.597Z,19.95
2022-12-12T18:37:08.253Z,20.70
2022-12-12T18:39:35.944Z,20.58
2022-12-12T18:42:03.633Z,20.30
2022-12-12T18:44:31.070Z,21.13
2022-12-12T18:46:58.461Z,19.92
2022-12-12T18:49:26.314Z,18.90
2022-12-12T18:51:53.844Z,19.02
2022-12-12T18:54:21.353Z,20.30
2022-12-12T18:56:48.896Z,19.83
2022-12-12T18:59:17.522Z,18.33
2022-12-12T19:01:45.459Z,21.85
2022-12-12T19:04:17.725Z,20.02
2022-12-12T19:06:46.986Z,19.08
2022-12-12T19:09:17.339Z,19.52
2022-12-12T19:11:45.864Z,19.60
2022-12-12T19:14:15.113Z,18.63
2022-12-12T19:16:43.792Z,18.83
2022-12-12T19:19:12.441Z,18.27
2022-12-12T19:21:41.439Z,18.60
2022-12-12T19:24:12.412Z,19.17
2022-12-12T19:26:43.771Z,19.90
2022-12-12T19:29:17.866Z,18.00
2022-12-12T19:31:45.589Z,18.50
2022-12-12T19:34:16.082Z,19.13
2022-12-12T19:36:47.053Z,17.92
2022-12-12T19:39:14.541Z,18.98
2022-12-12T19:41:42.404Z,19.17
2022-12-12T19:44:13.001Z,18.25
2022-12-12T19:46:42.728Z,19.83
2022-12-12T19:49:13.460Z,19.48
2022-12-12T19:51:42.905Z,19.42
2022-12-12T19:54:14.059Z,18.48
2022-12-12T19:56:42.145Z,19.33
2022-12-12T19:59:13.459Z,18.23
2022-12-12T20:01:41.737Z,17.73
2022-12-12T20:04:22.046Z,17.55
2022-12-12T20:06:50.922Z,16.42
2022-12-12T20:09:20.813Z,16.92
2022-12-12T20:11:48.862Z,16.40
2022-12-12T20:14:19.173Z,16.83
2022-12-12T20:16:47.101Z,16.83
2022-12-12T20:19:15.690Z,17.45
2022-12-12T20:22:02.183Z,17.13
2022-12-12T20:24:32.948Z,16.92
2022-12-12T20:27:03.311Z,17.55
2022-12-12T20:29:31.526Z,17.50
2022-12-12T20:32:00.121Z,17.73
2022-12-12T20:34:28.636Z,17.13
2022-12-12T20:36:56.084Z,18.25
2022-12-12T20:39:26.123Z,18.55
2022-12-12T20:41:54.380Z,18.30
2022-12-12T20:44:24.164Z,18.13
2022-12-12T20:46:51.811Z,17.60
2022-12-12T20:49:22.407Z,18.00
2022-12-12T20:51:58.344Z,17.17
2022-12-12T20:54:28.989Z,18.38
2022-12-12T20:56:58.580Z,17.70
2022-12-12T20:59:27.270Z,18.70
2022-12-12T21:01:55.022Z,19.52
2022-12-12T21:04:24.209Z,18.50
2022-12-12T21:06:52.251Z,20.17
2022-12-12T21:09:25.595Z,19.20
2022-12-12T21:11:56.394Z,19.80
2022-12-12T21:14:25.662Z,19.35
2022-12-12T21:16:53.517Z,20.10
2022-12-12T21:19:22.143Z,19.08
2022-12-12T21:21:50.610Z,18.65
2022-12-12T21:24:18.340Z,19.77
2022-12-12T21:26:46.412Z,19.35
2022-12-12T21:29:14.235Z,19.20
2022-12-12T21:31:48.601Z,20.20
2022-12-12T21:34:18.165Z,19.30
2022-12-12T21:36:45.885Z,19.00
2022-12-12T21:39:13.542Z,21.60
2022-12-12T21:41:44.042Z,21.30
2022-12-12T21:44:11.764Z,21.60
2022-12-12T21:46:42.058Z,21.85
2022-12-12T21:49:19.984Z,20.75
2022-12-12T21:51:48.154Z,20.48
2022-12-12T21:54:16.270Z,20.65
2022-12-12T21:56:44.477Z,19.55
2022-12-12T21:59:13.241Z,21.00
2022-12-12T22:01:41.848Z,20.40
2022-12-12T22:04:11.656Z,20.52
2022-12-12T22:06:39.566Z,21.88
2022-12-12T22:09:10.151Z,20.70
2022-12-12T22:11:41.741Z,19.88
2022-12-12T22:14:21.794Z,20.23
2022-12-12T22:16:49.997Z,20.40
2022-12-12T22:19:17.816Z,19.40
2022-12-12T22:21:47.496Z,20.70
2022-12-12T22:24:18.494Z,19.65
2022-12-12T22:26:48.925Z,19.08
2022-12-12T22:29:19.725Z,19.25
2022-12-12T22:31:50.371Z,20.58
2022-12-12T22:34:21.647Z,18.98
2022-12-12T22:36:50.028Z,18.52
2022-12-12T22:39:20.467Z,19.92
2022-12-12T22:41:48.121Z,19.38
2022-12-12T22:44:17.499Z,19.65
2022-12-12T22:46:46.626Z,17.63
2022-12-12T22:49:16.452Z,17.65
2022-12-12T22:51:44.523Z,17.98
2022-12-12T22:54:12.098Z,17.20
2022-12-12T22:56:40.280Z,16.30
2022-12-12T22:59:08.806Z,18.42
2022-12-12T23:01:36.277Z,16.45
2022-12-12T23:04:03.883Z,15.45
2022-12-12T23:06:36.446Z,16.67
2022-12-12T23:09:07.753Z,15.65
2022-12-12T23:11:35.828Z,16.65
2022-12-12T23:14:09.063Z,15.35
2022-12-12T23:16:37.103Z,15.65
2022-12-12T23:19:06.119Z,15.77
2022-12-12T23:21:35.496Z,15.63
2022-12-12T23:24:03.888Z,15.13
2022-12-12T23:26:33.546Z,15.98
2022-12-12T23:29:01.606Z,14.77
2022-12-12T23:31:31.792Z,14.77
2022-12-12T23:34:05.949Z,15.00
2022-12-12T23:36:33.618Z,14.45
2022-12-12T23:39:04.827Z,14.32
2022-12-12T23:41:33.164Z,14.23
2022-12-12T23:44:00.612Z,12.95
2022-12-12T23:46:28.563Z,13.27
2022-12-12T23:48:57.799Z,14.95
2022-12-12T23:51:27.725Z,13.98
2022-12-12T23:53:58.908Z,13.73
2022-12-12T23:56:26.956Z,14.52
2022-12-12T23:58:58.127Z,14.68
